Time;durP1;ratioP1;P1;durP2;ratioP2;P2;SDS_P1;SDS_P2;PMS_P1;PMS_P2;Temp;Humidity;BMP_temperature;BMP_pressure;BME280_temperature;BME280_humidity;BME280_pressure;Samples;Min_cycle;Max_cycle;Signal;HPM_P1;HPM_P2
2023/06/18 00:09:32;;;;;;;3.10;1.90;;;;;;;;;;20947344;28;20239;-83
2023/06/18 00:19:34;;;;;;;4.78;2.35;;;;;;;;;;20981905;28;20286;-82
2023/06/18 00:29:36;;;;;;;4.20;1.77;;;;;;;;;;20962678;28;20642;-82
2023/06/18 00:39:38;;;;;;;3.03;1.83;;;;;;;;;;20963352;28;20231;-82
2023/06/18 00:49:41;;;;;;;2.78;1.55;;;;;;;;;;20996986;28;20231;-81
2023/06/18 00:59:43;;;;;;;2.58;1.90;;;;;;;;;;20968540;28;20239;-82
2023/06/18 01:09:53;;;;;;;3.63;2.35;;;;;;;;;;20948307;28;20253;-82
2023/06/18 01:19:57;;;;;;;3.85;2.25;;;24.20;83.40;;;;;;20977993;28;20227;-81
2023/06/18 01:29:59;;;;;;;3.20;2.20;;;;;;;;;;20989965;28;20292;-80
2023/06/18 01:40:08;;;;;;;2.80;2.30;;;;;;;;;;20992670;28;20218;-83
2023/06/18 01:50:12;;;;;;;3.08;2.13;;;23.60;92.50;;;;;;20963838;28;20226;-80
2023/06/18 02:00:14;;;;;;;2.80;2.35;;;;;;;;;;20941906;28;20232;-81
2023/06/18 02:10:15;;;;;;;3.80;2.70;;;;;;;;;;20995372;28;20288;-81
2023/06/18 02:20:18;;;;;;;3.35;2.40;;;23.40;85.40;;;;;;20960592;28;20284;-81
2023/06/18 02:30:20;;;;;;;2.72;1.90;;;;;;;;;;20937702;28;20262;-82
2023/06/18 02:40:22;;;;;;;3.10;2.53;;;23.10;86.10;;;;;;20975448;28;20275;-82
2023/06/18 02:50:24;;;;;;;4.10;2.80;;;;;;;;;;20930778;28;20227;-82
2023/06/18 03:00:25;;;;;;;3.80;2.78;;;;;;;;;;20948186;28;20280;-80
2023/06/18 03:10:27;;;;;;;5.32;3.30;;;;;;;;;;20943698;28;20249;-82
2023/06/18 03:20:31;;;;;;;3.42;2.85;;;;;;;;;;20963097;28;20319;-83
2023/06/18 03:30:35;;;;;;;4.10;2.83;;;;;;;;;;20945775;28;20239;-81
2023/06/18 03:40:37;;;;;;;4.80;2.85;;;;;;;;;;20955746;28;20713;-82
2023/06/18 03:50:40;;;;;;;3.38;2.50;;;;;;;;;;20979513;28;20245;-82
2023/06/18 04:00:42;;;;;;;4.40;2.97;;;;;;;;;;20949676;28;20224;-85
2023/06/18 04:10:45;;;;;;;7.35;3.00;;;;;;;;;;20947859;28;20232;-84
2023/06/18 04:20:47;;;;;;;3.15;2.63;;;;;;;;;;20948470;28;20219;-83
2023/06/18 04:30:52;;;;;;;3.20;2.33;;;;;;;;;;20976711;28;20370;-83
2023/06/18 04:40:55;;;;;;;3.63;2.60;;;;;;;;;;20976203;28;20315;-83
2023/06/18 04:50:58;;;;;;;3.58;2.80;;;;;;;;;;20967896;28;20235;-82
2023/06/18 05:01:01;;;;;;;3.78;2.35;;;;;;;;;;20966807;28;20284;-83
2023/06/18 05:11:03;;;;;;;4.25;3.22;;;;;;;;;;20976650;28;20229;-84
2023/06/18 05:21:08;;;;;;;3.35;2.58;;;;;;;;;;20957954;28;20655;-83
2023/06/18 05:31:12;;;;;;;5.80;2.60;;;;;;;;;;20935568;28;20237;-82
2023/06/18 05:41:14;;;;;;;7.80;2.90;;;;;;;;;;20971232;28;20831;-82
2023/06/18 05:51:15;;;;;;;6.18;2.75;;;;;;;;;;20955279;28;20235;-82
2023/06/18 06:01:18;;;;;;;3.73;2.43;;;;;;;;;;20958871;28;20222;-83
2023/06/18 06:11:20;;;;;;;3.05;2.20;;;;;;;;;;20984497;28;20229;-82
2023/06/18 06:21:22;;;;;;;2.92;2.05;;;;;;;;;;20956106;28;20279;-82
2023/06/18 06:31:24;;;;;;;3.47;1.80;;;;;;;;;;20998027;28;20242;-82
2023/06/18 06:41:26;;;;;;;2.72;1.83;;;;;;;;;;20933107;28;20243;-82
2023/06/18 06:51:28;;;;;;;2.55;1.90;;;;;;;;;;20973973;28;20707;-81
2023/06/18 07:01:36;;;;;;;2.72;1.98;;;;;;;;;;20968664;28;20284;-82
2023/06/18 07:11:40;;;;;;;2.95;2.13;;;;;;;;;;20957870;28;20235;-82
2023/06/18 07:21:42;;;;;;;2.70;1.67;;;;;;;;;;21014791;28;20221;-83
2023/06/18 07:31:43;;;;;;;2.42;1.77;;;;;;;;;;21006201;28;20228;-81
2023/06/18 07:41:47;;;;;;;2.72;1.90;;;;;;;;;;21027622;28;20584;-85
2023/06/18 07:51:49;;;;;;;6.10;2.17;;;;;;;;;;20956513;28;20269;-85
2023/06/18 08:01:54;;;;;;;4.82;2.30;;;;;;;;;;20974190;28;20272;-86
2023/06/18 08:11:56;;;;;;;2.72;1.95;;;;;;;;;;21023051;28;20264;-85
2023/06/18 08:21:58;;;;;;;3.03;2.28;;;;;;;;;;21012192;28;20226;-86
2023/06/18 08:32:06;;;;;;;2.83;1.90;;;;;;;;;;21026232;28;20237;-86
2023/06/18 08:42:08;;;;;;;3.15;1.92;;;;;;;;;;21021497;28;20575;-85
2023/06/18 08:52:10;;;;;;;3.05;1.77;;;;;;;;;;21042656;28;20294;-86
2023/06/18 09:02:14;;;;;;;3.17;1.90;;;;;;;;;;21007837;28;20281;-86
2023/06/18 09:12:17;;;;;;;2.63;1.80;;;;;;;;;;20990487;28;20231;-87
2023/06/18 09:22:22;;;;;;;2.38;1.70;;;;;;;;;;20980956;28;20231;-86
2023/06/18 09:32:33;;;;;;;2.85;1.92;;;;;;;;;;20999962;28;20227;-88
2023/06/18 09:43:03;;;;;;;3.58;1.92;;;27.60;69.40;;;;;;20989064;28;20302;-86
2023/06/18 09:53:17;;;;;;;2.40;1.60;;;;;;;;;;20916438;23;20229;-68
2023/06/18 10:03:22;;;;;;;2.28;1.70;;;28.40;79.90;;;;;;20828996;28;20219;-68
2023/06/18 10:13:25;;;;;;;2.22;1.60;;;28.60;71.70;;;;;;20830062;28;20246;-68
2023/06/18 10:23:27;;;;;;;1.98;1.45;;;;;;;;;;20851195;28;20246;-67
2023/06/18 10:33:33;;;;;;;2.08;1.70;;;;;;;;;;20852791;28;20220;-68
2023/06/18 10:43:39;;;;;;;2.50;1.60;;;29.40;71.30;;;;;;20843162;28;20950;-67
2023/06/18 10:53:42;;;;;;;1.95;1.27;;;;;;;;;;20861933;28;20251;-68
2023/06/18 11:03:44;;;;;;;1.95;1.45;;;;;;;;;;20847951;28;20216;-68
2023/06/18 11:13:53;;;;;;;2.95;1.58;;;;;;;;;;20836817;28;20244;-67
2023/06/18 11:23:55;;;;;;;2.35;1.38;;;;;;;;;;20864344;28;20671;-68
2023/06/18 11:33:57;;;;;;;3.35;1.17;;;;;;;;;;20829945;28;20224;-68
2023/06/18 11:43:59;;;;;;;1.85;1.20;;;;;;;;;;20853375;28;20237;-68
2023/06/18 11:54:02;;;;;;;1.60;1.15;;;31.30;62.40;;;;;;20852356;28;20276;-68
2023/06/18 12:04:03;;;;;;;1.88;1.20;;;;;;;;;;20848493;28;20296;-68
2023/06/18 12:14:09;;;;;;;1.95;1.00;;;;;;;;;;20867549;28;20966;-68
2023/06/18 12:24:11;;;;;;;1.70;1.00;;;;;;;;;;20866574;28;20271;-68
2023/06/18 12:34:25;;;;;;;2.70;1.20;;;32.00;61.00;;;;;;20851086;28;20291;-69
2023/06/18 12:44:27;;;;;;;2.42;1.35;;;;;;;;;;20844041;28;20275;-69
2023/06/18 12:54:29;;;;;;;1.52;0.90;;;;;;;;;;20843722;28;20226;-69
2023/06/18 13:04:31;;;;;;;1.42;0.98;;;;;;;;;;20872727;28;20291;-69
2023/06/18 13:14:33;;;;;;;1.35;1.08;;;;;;;;;;20836488;28;20237;-68
2023/06/18 13:24:35;;;;;;;2.33;0.80;;;;;;;;;;20853411;28;20210;-69
2023/06/18 13:34:37;;;;;;;2.55;1.23;;;;;;;;;;20860799;28;20683;-69
2023/06/18 13:44:46;;;;;;;1.48;1.15;;;;;;;;;;20846144;28;20210;-70
2023/06/18 13:54:55;;;;;;;1.35;1.00;;;;;;;;;;20842502;28;20694;-69
2023/06/18 14:04:58;;;;;;;1.50;1.00;;;;;;;;;;20861159;28;20248;-70
2023/06/18 14:14:59;;;;;;;1.60;1.00;;;32.80;52.10;;;;;;20847757;28;20265;-70
2023/06/18 14:25:01;;;;;;;1.50;1.00;;;;;;;;;;20821388;28;20822;-69
2023/06/18 14:35:03;;;;;;;1.48;1.08;;;33.40;53.30;;;;;;20843526;28;20218;-69
2023/06/18 14:45:06;;;;;;;1.60;1.10;;;32.50;54.50;;;;;;20823510;28;20279;-69
2023/06/18 14:55:11;;;;;;;1.38;0.93;;;;;;;;;;20881611;28;20722;-69
2023/06/18 15:05:12;;;;;;;1.48;0.93;;;;;;;;;;20832753;28;20217;-68
2023/06/18 15:15:15;;;;;;;1.33;0.90;;;;;;;;;;20866002;28;20271;-69
2023/06/18 15:25:17;;;;;;;2.35;0.98;;;;;;;;;;20869805;28;20230;-69
2023/06/18 15:35:19;;;;;;;1.98;1.20;;;;;;;;;;20856848;28;20260;-66
2023/06/18 15:45:21;;;;;;;2.25;1.48;;;;;;;;;;20878648;28;20209;-66
2023/06/18 15:55:23;;;;;;;3.47;1.25;;;;;;;;;;20876394;28;20218;-66
2023/06/18 16:05:24;;;;;;;1.75;1.10;;;;;;;;;;20851198;28;20218;-67
2023/06/18 16:15:26;;;;;;;1.70;1.30;;;;;;;;;;20852325;28;20646;-66
2023/06/18 16:25:28;;;;;;;2.70;1.38;;;;;;;;;;20873959;28;20230;-65
2023/06/18 16:35:30;;;;;;;1.60;1.30;;;;;;;;;;20849608;28;20234;-66
2023/06/18 16:45:32;;;;;;;1.35;1.10;;;;;;;;;;20877499;28;20229;-66
2023/06/18 16:55:35;;;;;;;1.70;1.08;;;;;;;;;;20873875;28;20233;-66
2023/06/18 17:05:37;;;;;;;2.40;1.30;;;;;;;;;;20846700;28;20306;-67
2023/06/18 17:15:40;;;;;;;3.10;1.27;;;;;;;;;;20851651;28;20272;-66
2023/06/18 17:25:41;;;;;;;1.35;1.00;;;;;;;;;;20840658;28;20218;-67
2023/06/18 17:35:43;;;;;;;2.35;1.13;;;;;;;;;;20848116;28;20290;-67
2023/06/18 17:45:46;;;;;;;4.30;1.40;;;;;;;;;;20844530;28;20222;-67
2023/06/18 17:55:47;;;;;;;2.67;1.33;;;;;;;;;;20840720;28;20315;-67
2023/06/18 18:05:50;;;;;;;3.92;1.38;;;;;;;;;;20848301;28;20230;-67
2023/06/18 18:15:51;;;;;;;7.72;1.35;;;;;;;;;;20845982;28;20222;-67
2023/06/18 18:25:53;;;;;;;2.70;1.45;;;;;;;;;;20867519;28;20345;-67
2023/06/18 18:35:55;;;;;;;3.38;1.20;;;;;;;;;;20832981;28;20218;-67
2023/06/18 18:45:57;;;;;;;1.60;1.10;;;;;;;;;;20831158;28;20287;-67
2023/06/18 18:56:00;;;;;;;2.97;1.35;;;;;;;;;;20842038;28;20327;-67
2023/06/18 19:06:01;;;;;;;1.60;1.10;;;;;;;;;;20830495;28;20284;-67
2023/06/18 19:16:03;;;;;;;2.35;1.48;;;;;;;;;;20836881;28;20226;-67
2023/06/18 19:26:05;;;;;;;3.53;1.40;;;;;;;;;;20843802;28;20279;-67
2023/06/18 19:36:07;;;;;;;3.60;1.48;;;;;;;;;;20860947;28;20291;-67
2023/06/18 19:46:09;;;;;;;5.63;1.70;;;;;;;;;;20853354;28;20281;-67
2023/06/18 19:56:12;;;;;;;2.35;1.52;;;;;;;;;;20889100;28;20257;-66
2023/06/18 20:06:14;;;;;;;2.08;1.52;;;;;;;;;;20867920;28;20276;-67
2023/06/18 20:16:16;;;;;;;1.92;1.40;;;;;;;;;;20870185;28;20275;-67
2023/06/18 20:26:24;;;;;;;5.72;1.55;;;;;;;;;;20905884;28;20225;-66
2023/06/18 20:36:26;;;;;;;6.00;1.70;;;;;;;;;;20857525;28;20236;-67
2023/06/18 20:46:28;;;;;;;2.90;1.60;;;;;;;;;;20865448;28;20295;-67
2023/06/18 20:56:30;;;;;;;5.43;1.90;;;;;;;;;;20856022;28;20260;-67
2023/06/18 21:06:32;;;;;;;4.07;1.73;;;;;;;;;;20864602;28;20320;-67
2023/06/18 21:16:33;;;;;;;3.03;1.40;;;;;;;;;;20856112;28;20569;-67
2023/06/18 21:26:36;;;;;;;3.40;1.30;;;;;;;;;;20853340;28;20234;-69
2023/06/18 21:36:38;;;;;;;2.35;1.50;;;;;;;;;;20867434;28;20701;-66
2023/06/18 21:46:40;;;;;;;2.78;1.52;;;;;;;;;;20861512;28;20241;-67
2023/06/18 21:56:42;;;;;;;2.38;1.77;;;;;;;;;;20847784;28;20250;-67
2023/06/18 22:06:44;;;;;;;2.05;1.45;;;;;;;;;;20850947;28;20228;-66
2023/06/18 22:16:46;;;;;;;3.55;1.77;;;;;;;;;;20883129;28;20220;-66
2023/06/18 22:26:56;;;;;;;1.98;1.48;;;;;;;;;;20853886;28;20798;-67
2023/06/18 22:36:57;;;;;;;2.97;1.50;;;26.70;76.10;;;;;;20849276;28;20229;-67
2023/06/18 22:47:01;;;;;;;7.10;1.73;;;;;;;;;;20848554;28;20248;-68
2023/06/18 22:57:03;;;;;;;4.45;1.90;;;;;;;;;;20848928;28;20640;-67
2023/06/18 23:07:06;;;;;;;2.70;2.05;;;;;;;;;;20838761;28;20306;-67
2023/06/18 23:17:08;;;;;;;8.77;3.35;;;;;;;;;;20863131;28;20386;-67
2023/06/18 23:27:11;;;;;;;13.32;3.50;;;;;;;;;;20877785;28;20255;-68
2023/06/18 23:37:13;;;;;;;7.35;2.78;;;;;;;;;;20862603;28;20225;-67
2023/06/18 23:47:15;;;;;;;2.92;1.70;;;;;;;;;;20894390;28;20566;-67
2023/06/18 23:57:18;;;;;;;5.30;2.33;;;;;;;;;;20875127;28;20236;-67
